sensor_id;sensor_type;location;lat;lon;timestamp;P1;durP1;ratioP1;P2;durP2;ratioP2
40993;SDS011;26722;43.212;27.932;2022-11-20T00:01:42;23.55;;;5.40;;
40993;SDS011;26722;43.212;27.932;2022-11-20T00:04:08;26.05;;;5.53;;
40993;SDS011;26722;43.212;27.932;2022-11-20T00:06:33;22.15;;;5.60;;
40993;SDS011;26722;43.212;27.932;2022-11-20T00:08:59;34.13;;;6.10;;
40993;SDS011;26722;43.212;27.932;2022-11-20T00:11:26;25.17;;;4.93;;
40993;SDS011;26722;43.212;27.932;2022-11-20T00:13:54;27.08;;;6.10;;
40993;SDS011;26722;43.212;27.932;2022-11-20T00:16:22;29.13;;;6.80;;
40993;SDS011;26722;43.212;27.932;2022-11-20T00:18:49;27.80;;;5.55;;
40993;SDS011;26722;43.212;27.932;2022-11-20T00:21:16;28.52;;;6.10;;
40993;SDS011;26722;43.212;27.932;2022-11-20T00:23:46;26.48;;;6.20;;
40993;SDS011;26722;43.212;27.932;2022-11-20T00:26:13;32.17;;;5.75;;
40993;SDS011;26722;43.212;27.932;2022-11-20T00:28:41;27.48;;;6.30;;
40993;SDS011;26722;43.212;27.932;2022-11-20T00:31:09;31.48;;;6.85;;
40993;SDS011;26722;43.212;27.932;2022-11-20T00:33:39;26.05;;;6.60;;
40993;SDS011;26722;43.212;27.932;2022-11-20T00:36:15;21.05;;;6.25;;
40993;SDS011;26722;43.212;27.932;2022-11-20T00:38:43;35.25;;;6.53;;
40993;SDS011;26722;43.212;27.932;2022-11-20T00:41:10;21.30;;;6.00;;
40993;SDS011;26722;43.212;27.932;2022-11-20T00:43:37;27.77;;;7.03;;
40993;SDS011;26722;43.212;27.932;2022-11-20T00:46:04;30.48;;;6.85;;
40993;SDS011;26722;43.212;27.932;2022-11-20T00:48:40;29.13;;;6.90;;
40993;SDS011;26722;43.212;27.932;2022-11-20T00:51:06;25.42;;;7.32;;
40993;SDS011;26722;43.212;27.932;2022-11-20T00:53:32;23.70;;;6.63;;
40993;SDS011;26722;43.212;27.932;2022-11-20T00:58:31;26.75;;;6.38;;
40993;SDS011;26722;43.212;27.932;2022-11-20T01:03:38;29.92;;;6.57;;
40993;SDS011;26722;43.212;27.932;2022-11-20T01:06:15;30.42;;;6.85;;
40993;SDS011;26722;43.212;27.932;2022-11-20T01:08:45;23.73;;;6.35;;
40993;SDS011;26722;43.212;27.932;2022-11-20T01:11:13;27.60;;;6.25;;
40993;SDS011;26722;43.212;27.932;2022-11-20T01:13:40;21.42;;;5.75;;
40993;SDS011;26722;43.212;27.932;2022-11-20T01:16:07;23.33;;;5.72;;
40993;SDS011;26722;43.212;27.932;2022-11-20T01:18:42;25.10;;;5.78;;
40993;SDS011;26722;43.212;27.932;2022-11-20T01:21:18;30.98;;;5.95;;
40993;SDS011;26722;43.212;27.932;2022-11-20T01:23:49;17.60;;;5.22;;
40993;SDS011;26722;43.212;27.932;2022-11-20T01:26:19;26.83;;;4.82;;
40993;SDS011;26722;43.212;27.932;2022-11-20T01:28:48;22.17;;;5.10;;
40993;SDS011;26722;43.212;27.932;2022-11-20T01:31:17;19.02;;;5.22;;
40993;SDS011;26722;43.212;27.932;2022-11-20T01:33:45;26.15;;;5.47;;
40993;SDS011;26722;43.212;27.932;2022-11-20T01:36:13;16.65;;;4.70;;
40993;SDS011;26722;43.212;27.932;2022-11-20T01:38:39;21.80;;;5.22;;
40993;SDS011;26722;43.212;27.932;2022-11-20T01:41:06;16.83;;;5.40;;
40993;SDS011;26722;43.212;27.932;2022-11-20T01:43:32;27.02;;;5.35;;
40993;SDS011;26722;43.212;27.932;2022-11-20T01:46:00;21.15;;;4.55;;
40993;SDS011;26722;43.212;27.932;2022-11-20T01:49:31;18.33;;;4.78;;
40993;SDS011;26722;43.212;27.932;2022-11-20T01:51:32;22.45;;;4.60;;
40993;SDS011;26722;43.212;27.932;2022-11-20T01:54:06;23.45;;;4.93;;
40993;SDS011;26722;43.212;27.932;2022-11-20T01:56:37;24.08;;;4.95;;
40993;SDS011;26722;43.212;27.932;2022-11-20T01:59:06;22.00;;;4.90;;
40993;SDS011;26722;43.212;27.932;2022-11-20T02:01:35;20.65;;;5.18;;
40993;SDS011;26722;43.212;27.932;2022-11-20T02:04:01;19.65;;;4.57;;
40993;SDS011;26722;43.212;27.932;2022-11-20T02:06:31;22.13;;;4.60;;
40993;SDS011;26722;43.212;27.932;2022-11-20T02:09:03;15.52;;;4.70;;
40993;SDS011;26722;43.212;27.932;2022-11-20T02:11:29;16.92;;;3.97;;
40993;SDS011;26722;43.212;27.932;2022-11-20T02:13:56;28.48;;;5.20;;
40993;SDS011;26722;43.212;27.932;2022-11-20T02:16:29;19.30;;;4.90;;
40993;SDS011;26722;43.212;27.932;2022-11-20T02:18:59;24.40;;;4.63;;
40993;SDS011;26722;43.212;27.932;2022-11-20T02:24:22;22.50;;;4.45;;
40993;SDS011;26722;43.212;27.932;2022-11-20T02:29:24;23.67;;;4.80;;
40993;SDS011;26722;43.212;27.932;2022-11-20T02:31:52;16.13;;;4.18;;
40993;SDS011;26722;43.212;27.932;2022-11-20T02:34:20;25.63;;;4.80;;
40993;SDS011;26722;43.212;27.932;2022-11-20T02:36:45;21.70;;;4.63;;
40993;SDS011;26722;43.212;27.932;2022-11-20T02:39:11;18.23;;;4.65;;
40993;SDS011;26722;43.212;27.932;2022-11-20T02:41:41;17.95;;;3.80;;
40993;SDS011;26722;43.212;27.932;2022-11-20T02:44:07;23.83;;;4.13;;
40993;SDS011;26722;43.212;27.932;2022-11-20T02:46:33;16.50;;;4.47;;
40993;SDS011;26722;43.212;27.932;2022-11-20T02:49:00;24.08;;;5.10;;
40993;SDS011;26722;43.212;27.932;2022-11-20T02:51:26;21.10;;;4.25;;
40993;SDS011;26722;43.212;27.932;2022-11-20T02:53:52;20.95;;;5.07;;
40993;SDS011;26722;43.212;27.932;2022-11-20T02:56:17;15.23;;;4.13;;
40993;SDS011;26722;43.212;27.932;2022-11-20T02:58:43;17.30;;;4.30;;
40993;SDS011;26722;43.212;27.932;2022-11-20T03:01:08;17.25;;;4.40;;
40993;SDS011;26722;43.212;27.932;2022-11-20T03:03:34;20.52;;;4.85;;
40993;SDS011;26722;43.212;27.932;2022-11-20T03:05:59;17.45;;;4.72;;
40993;SDS011;26722;43.212;27.932;2022-11-20T03:08:25;19.92;;;4.80;;
40993;SDS011;26722;43.212;27.932;2022-11-20T03:10:51;15.52;;;4.20;;
40993;SDS011;26722;43.212;27.932;2022-11-20T03:13:16;25.65;;;4.80;;
40993;SDS011;26722;43.212;27.932;2022-11-20T03:15:42;15.73;;;4.57;;
40993;SDS011;26722;43.212;27.932;2022-11-20T03:18:07;18.73;;;4.68;;
40993;SDS011;26722;43.212;27.932;2022-11-20T03:20:33;20.40;;;4.75;;
40993;SDS011;26722;43.212;27.932;2022-11-20T03:22:59;23.20;;;4.53;;
40993;SDS011;26722;43.212;27.932;2022-11-20T03:25:24;14.68;;;4.40;;
40993;SDS011;26722;43.212;27.932;2022-11-20T03:27:50;13.10;;;3.85;;
40993;SDS011;26722;43.212;27.932;2022-11-20T03:30:15;22.08;;;4.55;;
40993;SDS011;26722;43.212;27.932;2022-11-20T03:32:41;20.33;;;4.25;;
40993;SDS011;26722;43.212;27.932;2022-11-20T03:35:07;23.88;;;4.47;;
40993;SDS011;26722;43.212;27.932;2022-11-20T03:37:32;17.70;;;4.75;;
40993;SDS011;26722;43.212;27.932;2022-11-20T03:39:58;14.88;;;4.55;;
40993;SDS011;26722;43.212;27.932;2022-11-20T03:42:23;18.42;;;4.65;;
40993;SDS011;26722;43.212;27.932;2022-11-20T03:45:08;24.52;;;4.85;;
40993;SDS011;26722;43.212;27.932;2022-11-20T03:47:33;28.33;;;5.65;;
40993;SDS011;26722;43.212;27.932;2022-11-20T03:49:59;28.60;;;5.22;;
40993;SDS011;26722;43.212;27.932;2022-11-20T03:52:24;28.85;;;5.57;;
40993;SDS011;26722;43.212;27.932;2022-11-20T03:54:50;24.80;;;5.70;;
40993;SDS011;26722;43.212;27.932;2022-11-20T03:57:15;32.50;;;5.75;;
40993;SDS011;26722;43.212;27.932;2022-11-20T03:59:41;30.95;;;6.43;;
40993;SDS011;26722;43.212;27.932;2022-11-20T04:02:06;32.05;;;5.57;;
40993;SDS011;26722;43.212;27.932;2022-11-20T04:04:31;27.95;;;6.03;;
40993;SDS011;26722;43.212;27.932;2022-11-20T04:06:57;34.10;;;6.32;;
40993;SDS011;26722;43.212;27.932;2022-11-20T04:09:22;25.88;;;5.10;;
40993;SDS011;26722;43.212;27.932;2022-11-20T04:11:48;27.52;;;5.82;;
40993;SDS011;26722;43.212;27.932;2022-11-20T04:14:14;21.98;;;4.53;;
40993;SDS011;26722;43.212;27.932;2022-11-20T04:16:40;19.45;;;4.85;;
40993;SDS011;26722;43.212;27.932;2022-11-20T04:19:09;22.20;;;5.53;;
40993;SDS011;26722;43.212;27.932;2022-11-20T04:21:36;22.67;;;4.57;;
40993;SDS011;26722;43.212;27.932;2022-11-20T04:24:02;16.95;;;4.55;;
40993;SDS011;26722;43.212;27.932;2022-11-20T04:26:28;17.50;;;4.40;;
40993;SDS011;26722;43.212;27.932;2022-11-20T04:28:54;27.25;;;5.10;;
40993;SDS011;26722;43.212;27.932;2022-11-20T04:31:22;22.05;;;4.88;;
40993;SDS011;26722;43.212;27.932;2022-11-20T04:33:48;19.67;;;4.00;;
40993;SDS011;26722;43.212;27.932;2022-11-20T04:36:16;18.50;;;4.15;;
40993;SDS011;26722;43.212;27.932;2022-11-20T04:38:43;20.25;;;4.18;;
40993;SDS011;26722;43.212;27.932;2022-11-20T04:41:12;22.40;;;4.22;;
40993;SDS011;26722;43.212;27.932;2022-11-20T04:43:40;20.33;;;4.20;;
40993;SDS011;26722;43.212;27.932;2022-11-20T04:46:06;15.93;;;3.47;;
40993;SDS011;26722;43.212;27.932;2022-11-20T04:48:31;16.00;;;3.75;;
40993;SDS011;26722;43.212;27.932;2022-11-20T04:50:57;18.90;;;4.35;;
40993;SDS011;26722;43.212;27.932;2022-11-20T04:53:22;19.52;;;3.65;;
40993;SDS011;26722;43.212;27.932;2022-11-20T04:55:48;19.15;;;3.72;;
40993;SDS011;26722;43.212;27.932;2022-11-20T04:58:14;16.23;;;3.42;;
40993;SDS011;26722;43.212;27.932;2022-11-20T05:00:41;21.95;;;3.53;;
40993;SDS011;26722;43.212;27.932;2022-11-20T05:03:06;25.40;;;3.88;;
40993;SDS011;26722;43.212;27.932;2022-11-20T05:05:33;20.17;;;3.60;;
40993;SDS011;26722;43.212;27.932;2022-11-20T05:07:59;19.23;;;4.00;;
40993;SDS011;26722;43.212;27.932;2022-11-20T05:10:25;25.85;;;4.53;;
40993;SDS011;26722;43.212;27.932;2022-11-20T05:12:51;24.00;;;4.43;;
40993;SDS011;26722;43.212;27.932;2022-11-20T05:15:17;16.92;;;3.58;;
40993;SDS011;26722;43.212;27.932;2022-11-20T05:17:49;15.98;;;4.07;;
40993;SDS011;26722;43.212;27.932;2022-11-20T05:20:16;23.33;;;4.18;;
40993;SDS011;26722;43.212;27.932;2022-11-20T05:22:43;14.88;;;3.35;;
40993;SDS011;26722;43.212;27.932;2022-11-20T05:25:09;20.33;;;3.97;;
40993;SDS011;26722;43.212;27.932;2022-11-20T05:27:35;21.38;;;3.95;;
40993;SDS011;26722;43.212;27.932;2022-11-20T05:30:00;25.40;;;4.40;;
40993;SDS011;26722;43.212;27.932;2022-11-20T05:32:26;20.70;;;4.07;;
40993;SDS011;26722;43.212;27.932;2022-11-20T05:34:52;17.52;;;4.07;;
40993;SDS011;26722;43.212;27.932;2022-11-20T05:37:17;16.45;;;3.85;;
40993;SDS011;26722;43.212;27.932;2022-11-20T05:39:43;22.27;;;4.10;;
40993;SDS011;26722;43.212;27.932;2022-11-20T05:42:08;22.50;;;3.58;;
40993;SDS011;26722;43.212;27.932;2022-11-20T05:44:52;16.65;;;3.90;;
40993;SDS011;26722;43.212;27.932;2022-11-20T05:47:17;19.80;;;3.83;;
40993;SDS011;26722;43.212;27.932;2022-11-20T05:49:43;24.65;;;4.18;;
40993;SDS011;26722;43.212;27.932;2022-11-20T05:52:08;19.52;;;4.03;;
40993;SDS011;26722;43.212;27.932;2022-11-20T05:54:34;22.85;;;3.50;;
40993;SDS011;26722;43.212;27.932;2022-11-20T05:56:59;19.10;;;3.55;;
40993;SDS011;26722;43.212;27.932;2022-11-20T05:59:25;16.90;;;3.30;;
40993;SDS011;26722;43.212;27.932;2022-11-20T06:01:50;23.15;;;3.78;;
40993;SDS011;26722;43.212;27.932;2022-11-20T06:04:15;20.08;;;3.47;;
40993;SDS011;26722;43.212;27.932;2022-11-20T06:06:41;15.75;;;3.05;;
40993;SDS011;26722;43.212;27.932;2022-11-20T06:09:06;23.85;;;3.83;;
40993;SDS011;26722;43.212;27.932;2022-11-20T06:11:32;18.65;;;3.60;;
40993;SDS011;26722;43.212;27.932;2022-11-20T06:13:57;20.88;;;3.95;;
40993;SDS011;26722;43.212;27.932;2022-11-20T06:16:23;14.48;;;3.05;;
40993;SDS011;26722;43.212;27.932;2022-11-20T06:18:48;17.08;;;3.83;;
40993;SDS011;26722;43.212;27.932;2022-11-20T06:21:15;20.35;;;3.75;;
40993;SDS011;26722;43.212;27.932;2022-11-20T06:23:42;21.17;;;4.10;;
40993;SDS011;26722;43.212;27.932;2022-11-20T06:26:12;20.17;;;3.15;;
40993;SDS011;26722;43.212;27.932;2022-11-20T06:28:39;21.48;;;4.63;;
40993;SDS011;26722;43.212;27.932;2022-11-20T06:31:05;27.75;;;3.70;;
40993;SDS011;26722;43.212;27.932;2022-11-20T06:33:32;17.98;;;4.13;;
40993;SDS011;26722;43.212;27.932;2022-11-20T06:35:58;25.63;;;4.60;;
40993;SDS011;26722;43.212;27.932;2022-11-20T06:38:25;18.20;;;3.95;;
40993;SDS011;26722;43.212;27.932;2022-11-20T06:40:52;19.13;;;3.55;;
40993;SDS011;26722;43.212;27.932;2022-11-20T06:43:18;19.65;;;4.05;;
40993;SDS011;26722;43.212;27.932;2022-11-20T06:45:44;24.38;;;4.53;;
40993;SDS011;26722;43.212;27.932;2022-11-20T06:48:09;21.25;;;4.03;;
40993;SDS011;26722;43.212;27.932;2022-11-20T06:50:38;16.13;;;3.33;;
40993;SDS011;26722;43.212;27.932;2022-11-20T06:53:03;17.08;;;3.90;;
40993;SDS011;26722;43.212;27.932;2022-11-20T06:55:30;23.45;;;3.85;;
40993;SDS011;26722;43.212;27.932;2022-11-20T06:57:57;19.30;;;3.65;;
40993;SDS011;26722;43.212;27.932;2022-11-20T07:00:22;20.20;;;3.90;;
40993;SDS011;26722;43.212;27.932;2022-11-20T07:02:48;24.05;;;3.70;;
40993;SDS011;26722;43.212;27.932;2022-11-20T07:05:15;19.15;;;3.70;;
40993;SDS011;26722;43.212;27.932;2022-11-20T07:07:40;25.83;;;4.03;;
40993;SDS011;26722;43.212;27.932;2022-11-20T07:10:06;22.83;;;4.15;;
40993;SDS011;26722;43.212;27.932;2022-11-20T07:12:32;22.98;;;4.25;;
40993;SDS011;26722;43.212;27.932;2022-11-20T07:14:57;34.95;;;4.13;;
40993;SDS011;26722;43.212;27.932;2022-11-20T07:17:23;25.33;;;4.32;;
40993;SDS011;26722;43.212;27.932;2022-11-20T07:19:48;28.02;;;4.53;;
40993;SDS011;26722;43.212;27.932;2022-11-20T07:22:14;34.78;;;4.70;;
40993;SDS011;26722;43.212;27.932;2022-11-20T07:24:39;39.40;;;5.38;;
40993;SDS011;26722;43.212;27.932;2022-11-20T07:27:05;24.17;;;4.57;;
40993;SDS011;26722;43.212;27.932;2022-11-20T07:29:30;21.75;;;4.45;;
40993;SDS011;26722;43.212;27.932;2022-11-20T07:31:56;22.42;;;4.35;;
40993;SDS011;26722;43.212;27.932;2022-11-20T07:34:22;21.27;;;4.03;;
40993;SDS011;26722;43.212;27.932;2022-11-20T07:36:47;23.65;;;4.03;;
40993;SDS011;26722;43.212;27.932;2022-11-20T07:39:13;27.75;;;4.28;;
40993;SDS011;26722;43.212;27.932;2022-11-20T07:41:38;22.77;;;4.43;;
40993;SDS011;26722;43.212;27.932;2022-11-20T07:44:04;21.27;;;3.97;;
40993;SDS011;26722;43.212;27.932;2022-11-20T07:46:29;20.42;;;3.42;;
40993;SDS011;26722;43.212;27.932;2022-11-20T07:48:55;24.25;;;5.00;;
40993;SDS011;26722;43.212;27.932;2022-11-20T07:51:20;28.77;;;4.63;;
40993;SDS011;26722;43.212;27.932;2022-11-20T07:53:46;20.95;;;4.10;;
40993;SDS011;26722;43.212;27.932;2022-11-20T07:56:11;15.48;;;4.03;;
40993;SDS011;26722;43.212;27.932;2022-11-20T07:58:39;18.85;;;4.15;;
40993;SDS011;26722;43.212;27.932;2022-11-20T08:01:06;25.65;;;4.30;;
40993;SDS011;26722;43.212;27.932;2022-11-20T08:03:32;26.83;;;4.28;;
40993;SDS011;26722;43.212;27.932;2022-11-20T08:06:00;27.38;;;4.40;;
40993;SDS011;26722;43.212;27.932;2022-11-20T08:08:27;24.23;;;3.95;;
40993;SDS011;26722;43.212;27.932;2022-11-20T08:10:53;29.45;;;4.03;;
40993;SDS011;26722;43.212;27.932;2022-11-20T08:13:39;26.67;;;4.07;;
40993;SDS011;26722;43.212;27.932;2022-11-20T08:16:23;17.65;;;4.32;;
40993;SDS011;26722;43.212;27.932;2022-11-20T08:18:48;26.48;;;4.35;;
40993;SDS011;26722;43.212;27.932;2022-11-20T08:21:14;27.65;;;4.55;;
40993;SDS011;26722;43.212;27.932;2022-11-20T08:23:40;24.98;;;4.50;;
40993;SDS011;26722;43.212;27.932;2022-11-20T08:26:05;31.30;;;4.72;;
40993;SDS011;26722;43.212;27.932;2022-11-20T08:28:31;23.50;;;4.22;;
40993;SDS011;26722;43.212;27.932;2022-11-20T08:31:00;22.88;;;3.80;;
40993;SDS011;26722;43.212;27.932;2022-11-20T08:33:26;27.25;;;4.10;;
40993;SDS011;26722;43.212;27.932;2022-11-20T08:35:52;21.92;;;4.38;;
40993;SDS011;26722;43.212;27.932;2022-11-20T08:38:17;26.80;;;4.60;;
40993;SDS011;26722;43.212;27.932;2022-11-20T08:40:43;29.30;;;4.57;;
40993;SDS011;26722;43.212;27.932;2022-11-20T08:43:31;20.95;;;4.43;;
40993;SDS011;26722;43.212;27.932;2022-11-20T08:45:56;27.80;;;4.85;;
40993;SDS011;26722;43.212;27.932;2022-11-20T08:48:22;26.17;;;4.53;;
40993;SDS011;26722;43.212;27.932;2022-11-20T08:50:47;25.58;;;4.65;;
40993;SDS011;26722;43.212;27.932;2022-11-20T08:53:13;28.35;;;4.40;;
40993;SDS011;26722;43.212;27.932;2022-11-20T08:55:38;27.58;;;4.63;;
40993;SDS011;26722;43.212;27.932;2022-11-20T08:58:04;28.63;;;5.07;;
40993;SDS011;26722;43.212;27.932;2022-11-20T09:00:31;29.20;;;4.95;;
40993;SDS011;26722;43.212;27.932;2022-11-20T09:02:57;33.03;;;4.80;;
40993;SDS011;26722;43.212;27.932;2022-11-20T09:05:23;29.77;;;5.28;;
40993;SDS011;26722;43.212;27.932;2022-11-20T09:07:49;31.05;;;4.88;;
40993;SDS011;26722;43.212;27.932;2022-11-20T09:10:14;28.90;;;5.28;;
40993;SDS011;26722;43.212;27.932;2022-11-20T09:12:40;26.67;;;5.03;;
40993;SDS011;26722;43.212;27.932;2022-11-20T09:15:05;20.58;;;4.30;;
40993;SDS011;26722;43.212;27.932;2022-11-20T09:17:31;29.02;;;5.00;;
40993;SDS011;26722;43.212;27.932;2022-11-20T09:19:57;29.55;;;5.05;;
40993;SDS011;26722;43.212;27.932;2022-11-20T09:22:23;30.42;;;4.90;;
40993;SDS011;26722;43.212;27.932;2022-11-20T09:24:48;25.83;;;4.72;;
40993;SDS011;26722;43.212;27.932;2022-11-20T09:27:14;28.88;;;5.03;;
40993;SDS011;26722;43.212;27.932;2022-11-20T09:29:39;31.35;;;4.88;;
40993;SDS011;26722;43.212;27.932;2022-11-20T09:32:05;26.67;;;4.70;;
40993;SDS011;26722;43.212;27.932;2022-11-20T09:34:31;26.85;;;5.00;;
40993;SDS011;26722;43.212;27.932;2022-11-20T09:36:56;30.30;;;4.82;;
40993;SDS011;26722;43.212;27.932;2022-11-20T09:39:22;27.63;;;5.30;;
40993;SDS011;26722;43.212;27.932;2022-11-20T09:41:52;26.63;;;5.00;;
40993;SDS011;26722;43.212;27.932;2022-11-20T09:47:47;20.05;;;4.38;;
40993;SDS011;26722;43.212;27.932;2022-11-20T09:52:49;24.10;;;4.03;;
40993;SDS011;26722;43.212;27.932;2022-11-20T09:55:20;22.98;;;3.88;;
40993;SDS011;26722;43.212;27.932;2022-11-20T09:57:47;32.50;;;4.90;;
40993;SDS011;26722;43.212;27.932;2022-11-20T10:00:16;26.88;;;4.57;;
40993;SDS011;26722;43.212;27.932;2022-11-20T10:02:52;26.27;;;4.93;;
40993;SDS011;26722;43.212;27.932;2022-11-20T10:05:28;20.70;;;3.78;;
40993;SDS011;26722;43.212;27.932;2022-11-20T10:10:34;26.38;;;4.05;;
40993;SDS011;26722;43.212;27.932;2022-11-20T10:21:08;23.88;;;3.83;;
40993;SDS011;26722;43.212;27.932;2022-11-20T10:24:23;18.20;;;3.75;;
40993;SDS011;26722;43.212;27.932;2022-11-20T10:32:36;24.33;;;4.80;;
40993;SDS011;26722;43.212;27.932;2022-11-20T10:37:51;29.40;;;4.00;;
40993;SDS011;26722;43.212;27.932;2022-11-20T10:43:39;23.20;;;5.47;;
40993;SDS011;26722;43.212;27.932;2022-11-20T10:46:06;25.10;;;5.35;;
40993;SDS011;26722;43.212;27.932;2022-11-20T10:48:35;32.35;;;5.28;;
40993;SDS011;26722;43.212;27.932;2022-11-20T10:54:24;20.73;;;4.88;;
40993;SDS011;26722;43.212;27.932;2022-11-20T10:56:57;23.77;;;5.10;;
40993;SDS011;26722;43.212;27.932;2022-11-20T10:59:41;21.48;;;4.30;;
40993;SDS011;26722;43.212;27.932;2022-11-20T11:02:17;23.70;;;3.90;;
40993;SDS011;26722;43.212;27.932;2022-11-20T11:04:52;29.38;;;4.80;;
40993;SDS011;26722;43.212;27.932;2022-11-20T11:07:26;30.77;;;4.93;;
40993;SDS011;26722;43.212;27.932;2022-11-20T11:09:56;20.90;;;4.32;;
40993;SDS011;26722;43.212;27.932;2022-11-20T11:12:22;26.98;;;4.88;;
40993;SDS011;26722;43.212;27.932;2022-11-20T11:14:53;27.60;;;4.82;;
40993;SDS011;26722;43.212;27.932;2022-11-20T11:17:32;26.42;;;5.28;;
40993;SDS011;26722;43.212;27.932;2022-11-20T11:19:59;30.00;;;5.05;;
40993;SDS011;26722;43.212;27.932;2022-11-20T11:22:25;29.70;;;5.72;;
40993;SDS011;26722;43.212;27.932;2022-11-20T11:24:54;21.77;;;4.88;;
40993;SDS011;26722;43.212;27.932;2022-11-20T11:27:20;22.50;;;5.18;;
40993;SDS011;26722;43.212;27.932;2022-11-20T11:29:45;28.48;;;4.97;;
40993;SDS011;26722;43.212;27.932;2022-11-20T11:32:13;20.95;;;4.75;;
40993;SDS011;26722;43.212;27.932;2022-11-20T11:34:58;27.73;;;4.82;;
40993;SDS011;26722;43.212;27.932;2022-11-20T11:37:32;27.33;;;4.78;;
40993;SDS011;26722;43.212;27.932;2022-11-20T11:40:01;29.95;;;4.93;;
40993;SDS011;26722;43.212;27.932;2022-11-20T11:42:27;34.08;;;5.35;;
40993;SDS011;26722;43.212;27.932;2022-11-20T11:44:54;34.75;;;5.15;;
40993;SDS011;26722;43.212;27.932;2022-11-20T11:47:31;23.90;;;5.20;;
40993;SDS011;26722;43.212;27.932;2022-11-20T11:50:00;27.35;;;4.82;;
40993;SDS011;26722;43.212;27.932;2022-11-20T11:52:28;22.65;;;4.65;;
40993;SDS011;26722;43.212;27.932;2022-11-20T11:54:59;27.50;;;5.78;;
40993;SDS011;26722;43.212;27.932;2022-11-20T11:57:49;31.20;;;6.40;;
40993;SDS011;26722;43.212;27.932;2022-11-20T12:00:21;27.30;;;7.65;;
40993;SDS011;26722;43.212;27.932;2022-11-20T12:05:40;29.73;;;5.95;;
40993;SDS011;26722;43.212;27.932;2022-11-20T12:14:37;25.08;;;5.20;;
40993;SDS011;26722;43.212;27.932;2022-11-20T12:17:04;32.05;;;5.43;;
40993;SDS011;26722;43.212;27.932;2022-11-20T12:19:30;29.80;;;5.78;;
40993;SDS011;26722;43.212;27.932;2022-11-20T12:30:18;32.97;;;5.57;;
40993;SDS011;26722;43.212;27.932;2022-11-20T12:53:04;52.05;;;6.90;;
40993;SDS011;26722;43.212;27.932;2022-11-20T12:58:05;43.80;;;6.10;;
40993;SDS011;26722;43.212;27.932;2022-11-20T13:01:01;41.58;;;5.75;;
40993;SDS011;26722;43.212;27.932;2022-11-20T13:06:54;35.88;;;6.28;;
40993;SDS011;26722;43.212;27.932;2022-11-20T13:09:21;35.45;;;5.07;;
40993;SDS011;26722;43.212;27.932;2022-11-20T13:14:41;37.67;;;5.88;;
40993;SDS011;26722;43.212;27.932;2022-11-20T13:19:33;38.75;;;6.32;;
40993;SDS011;26722;43.212;27.932;2022-11-20T13:21:59;42.42;;;6.28;;
40993;SDS011;26722;43.212;27.932;2022-11-20T13:24:26;50.58;;;6.38;;
40993;SDS011;26722;43.212;27.932;2022-11-20T13:29:33;44.20;;;6.28;;
40993;SDS011;26722;43.212;27.932;2022-11-20T13:32:11;44.83;;;7.03;;
40993;SDS011;26722;43.212;27.932;2022-11-20T13:34:51;38.42;;;6.13;;
40993;SDS011;26722;43.212;27.932;2022-11-20T13:42:44;47.25;;;6.45;;
40993;SDS011;26722;43.212;27.932;2022-11-20T13:45:27;41.58;;;6.97;;
40993;SDS011;26722;43.212;27.932;2022-11-20T13:47:57;44.63;;;6.05;;
40993;SDS011;26722;43.212;27.932;2022-11-20T13:50:46;40.83;;;6.07;;
40993;SDS011;26722;43.212;27.932;2022-11-20T13:53:34;39.55;;;6.93;;
40993;SDS011;26722;43.212;27.932;2022-11-20T13:56:16;41.33;;;6.93;;
40993;SDS011;26722;43.212;27.932;2022-11-20T14:01:30;48.67;;;8.18;;
40993;SDS011;26722;43.212;27.932;2022-11-20T14:03:59;46.85;;;7.38;;
40993;SDS011;26722;43.212;27.932;2022-11-20T14:06:33;56.90;;;8.15;;
40993;SDS011;26722;43.212;27.932;2022-11-20T14:09:10;52.28;;;8.63;;
40993;SDS011;26722;43.212;27.932;2022-11-20T14:11:45;49.78;;;8.25;;
40993;SDS011;26722;43.212;27.932;2022-11-20T14:14:13;63.42;;;7.57;;
40993;SDS011;26722;43.212;27.932;2022-11-20T14:16:42;48.05;;;8.88;;
40993;SDS011;26722;43.212;27.932;2022-11-20T14:21:44;54.53;;;7.40;;
40993;SDS011;26722;43.212;27.932;2022-11-20T14:24:17;45.58;;;7.25;;
40993;SDS011;26722;43.212;27.932;2022-11-20T14:26:45;43.40;;;7.90;;
40993;SDS011;26722;43.212;27.932;2022-11-20T14:29:15;52.70;;;7.85;;
40993;SDS011;26722;43.212;27.932;2022-11-20T14:31:46;48.88;;;7.43;;
40993;SDS011;26722;43.212;27.932;2022-11-20T14:34:16;49.85;;;7.53;;
40993;SDS011;26722;43.212;27.932;2022-11-20T14:36:47;46.72;;;8.13;;
40993;SDS011;26722;43.212;27.932;2022-11-20T14:39:20;40.30;;;6.45;;
40993;SDS011;26722;43.212;27.932;2022-11-20T14:41:52;45.97;;;7.88;;
40993;SDS011;26722;43.212;27.932;2022-11-20T14:44:20;60.00;;;7.65;;
40993;SDS011;26722;43.212;27.932;2022-11-20T14:46:50;45.05;;;6.45;;
40993;SDS011;26722;43.212;27.932;2022-11-20T14:49:17;48.03;;;7.53;;
40993;SDS011;26722;43.212;27.932;2022-11-20T14:51:43;45.08;;;7.03;;
40993;SDS011;26722;43.212;27.932;2022-11-20T14:56:38;57.88;;;7.63;;
40993;SDS011;26722;43.212;27.932;2022-11-20T14:59:04;46.30;;;7.80;;
40993;SDS011;26722;43.212;27.932;2022-11-20T15:01:31;41.17;;;6.95;;
40993;SDS011;26722;43.212;27.932;2022-11-20T15:04:01;43.22;;;7.13;;
40993;SDS011;26722;43.212;27.932;2022-11-20T15:06:35;45.45;;;7.20;;
40993;SDS011;26722;43.212;27.932;2022-11-20T15:09:04;57.65;;;8.05;;
40993;SDS011;26722;43.212;27.932;2022-11-20T15:11:37;58.30;;;7.68;;
40993;SDS011;26722;43.212;27.932;2022-11-20T15:14:04;47.17;;;7.45;;
40993;SDS011;26722;43.212;27.932;2022-11-20T15:16:31;48.38;;;8.65;;
40993;SDS011;26722;43.212;27.932;2022-11-20T15:18:57;47.13;;;7.57;;
40993;SDS011;26722;43.212;27.932;2022-11-20T15:21:22;52.20;;;8.15;;
40993;SDS011;26722;43.212;27.932;2022-11-20T15:23:48;41.92;;;7.43;;
40993;SDS011;26722;43.212;27.932;2022-11-20T15:26:23;60.97;;;8.75;;
40993;SDS011;26722;43.212;27.932;2022-11-20T15:28:50;47.22;;;8.63;;
40993;SDS011;26722;43.212;27.932;2022-11-20T15:31:21;38.53;;;8.18;;
40993;SDS011;26722;43.212;27.932;2022-11-20T15:33:48;53.30;;;8.50;;
40993;SDS011;26722;43.212;27.932;2022-11-20T15:36:14;46.42;;;9.23;;
40993;SDS011;26722;43.212;27.932;2022-11-20T15:38:39;44.08;;;8.95;;
40993;SDS011;26722;43.212;27.932;2022-11-20T15:41:05;51.60;;;9.02;;
40993;SDS011;26722;43.212;27.932;2022-11-20T15:43:30;49.22;;;9.40;;
40993;SDS011;26722;43.212;27.932;2022-11-20T15:45:58;45.67;;;9.85;;
40993;SDS011;26722;43.212;27.932;2022-11-20T15:48:34;53.05;;;10.13;;
40993;SDS011;26722;43.212;27.932;2022-11-20T15:53:39;45.40;;;9.75;;
40993;SDS011;26722;43.212;27.932;2022-11-20T15:56:09;56.40;;;9.38;;
40993;SDS011;26722;43.212;27.932;2022-11-20T15:58:37;51.90;;;9.23;;
40993;SDS011;26722;43.212;27.932;2022-11-20T16:01:02;47.90;;;9.30;;
40993;SDS011;26722;43.212;27.932;2022-11-20T16:03:27;51.10;;;9.02;;
40993;SDS011;26722;43.212;27.932;2022-11-20T16:05:53;53.78;;;9.50;;
40993;SDS011;26722;43.212;27.932;2022-11-20T16:08:18;60.95;;;11.15;;
40993;SDS011;26722;43.212;27.932;2022-11-20T16:10:44;48.85;;;9.25;;
40993;SDS011;26722;43.212;27.932;2022-11-20T16:13:13;51.15;;;10.60;;
40993;SDS011;26722;43.212;27.932;2022-11-20T16:15:59;44.58;;;9.43;;
40993;SDS011;26722;43.212;27.932;2022-11-20T16:18:29;48.25;;;9.88;;